Time;durP1;ratioP1;P1;durP2;ratioP2;P2;SDS_P1;SDS_P2;PMS_P1;PMS_P2;Temp;Humidity;BMP_temperature;BMP_pressure;BME280_temperature;BME280_humidity;BME280_pressure;Samples;Min_cycle;Max_cycle;Signal;HPM_P1;HPM_P2
2022/01/08 00:00:14;;;;;;;11.60;3.03;;;2.50;99.90;;;;;;5071759;28;20040;-62
2022/01/08 00:02:40;;;;;;;9.55;2.60;;;;;;;;;;5071366;28;20047;-63
2022/01/08 00:05:06;;;;;;;9.25;2.78;;;;;;;;;;5070734;28;20051;-63
2022/01/08 00:07:32;;;;;;;9.27;3.40;;;;;;;;;;5070044;28;20052;-62
2022/01/08 00:12:30;;;;;;;8.85;2.53;;;;;;;;;;5089624;28;20044;-61
2022/01/08 00:14:56;;;;;;;7.55;3.00;;;2.50;99.90;;;;;;5090851;28;20409;-60
2022/01/08 00:17:23;;;;;;;8.77;3.50;;;;;;;;;;5091993;28;20028;-59
2022/01/08 00:19:52;;;;;;;8.38;3.40;;;;;;;;;;5095357;28;20453;-60
2022/01/08 00:22:18;;;;;;;8.50;2.83;;;;;;;;;;5095689;28;20040;-60
2022/01/08 00:24:45;;;;;;;11.13;3.72;;;;;;;;;;5095315;28;20122;-60
2022/01/08 00:27:10;;;;;;;10.82;2.85;;;2.50;99.90;;;;;;5095231;28;20040;-60
2022/01/08 00:29:36;;;;;;;10.60;3.20;;;;;;;;;;5077277;28;20044;-61
2022/01/08 00:32:02;;;;;;;9.95;3.38;;;;;;;;;;5095339;28;20551;-61
2022/01/08 00:34:28;;;;;;;9.45;3.53;;;;;;;;;;5095159;28;20186;-61
2022/01/08 00:36:54;;;;;;;7.22;2.90;;;2.60;99.90;;;;;;5096211;28;20039;-61
2022/01/08 00:39:20;;;;;;;10.27;2.72;;;;;;;;;;5095948;28;20410;-61
2022/01/08 00:41:45;;;;;;;8.13;2.38;;;2.60;99.90;;;;;;5095645;28;20398;-61
2022/01/08 00:44:11;;;;;;;10.23;2.83;;;;;;;;;;5095279;28;20040;-60
2022/01/08 00:46:37;;;;;;;12.77;3.33;;;;;;;;;;5095108;28;20036;-62
2022/01/08 00:49:04;;;;;;;9.10;3.22;;;;;;;;;;5095047;28;20044;-61
2022/01/08 00:51:30;;;;;;;18.00;3.55;;;;;;;;;;5095261;28;20127;-61
2022/01/08 00:53:56;;;;;;;14.82;3.22;;;;;;;;;;5094960;28;20380;-62
2022/01/08 00:56:22;;;;;;;9.93;3.50;;;;;;;;;;5094487;28;20545;-61
2022/01/08 00:58:47;;;;;;;8.90;3.03;;;2.50;99.90;;;;;;5095050;28;20123;-61
2022/01/08 01:01:13;;;;;;;7.63;2.88;;;2.50;99.90;;;;;;5095291;28;20076;-61
2022/01/08 01:03:39;;;;;;;11.20;2.65;;;;;;;;;;5095056;28;20065;-61
2022/01/08 01:06:06;;;;;;;6.22;2.03;;;;;;;;;;5094458;28;20055;-60
2022/01/08 01:08:32;;;;;;;7.53;2.38;;;;;;;;;;5094513;28;20044;-62
2022/01/08 01:10:57;;;;;;;7.97;2.00;;;2.80;99.90;;;;;;5059615;28;20040;-61
2022/01/08 01:13:23;;;;;;;9.57;1.77;;;;;;;;;;5094886;28;20040;-61
2022/01/08 01:15:49;;;;;;;6.72;1.77;;;;;;;;;;5094257;28;20036;-61
2022/01/08 01:18:15;;;;;;;6.38;1.40;;;;;;;;;;5094403;28;20047;-62
2022/01/08 01:20:42;;;;;;;6.10;1.45;;;;;;;;;;5094576;28;20054;-62
2022/01/08 01:23:14;;;;;;;4.72;1.40;;;;;;;;;;5094262;28;20040;-61
2022/01/08 01:25:47;;;;;;;12.35;1.55;;;2.40;99.90;;;;;;5094433;28;20452;-61
2022/01/08 01:28:26;;;;;;;6.75;1.80;;;;;;;;;;5094146;28;20050;-61
2022/01/08 01:49:16;;;;;;;7.65;1.50;;;;;;;;;;5093863;28;20123;-62
2022/01/08 01:51:42;;;;;;;10.27;2.42;;;2.60;99.90;;;;;;5094270;28;20138;-61
2022/01/08 01:54:08;;;;;;;8.02;2.00;;;;;;;;;;5094443;28;20150;-62
2022/01/08 01:56:35;;;;;;;10.25;2.28;;;2.50;99.90;;;;;;5093650;28;20046;-62
2022/01/08 01:59:00;;;;;;;7.65;1.80;;;2.90;99.90;;;;;;5094176;28;20474;-63
2022/01/08 02:01:27;;;;;;;9.10;2.90;;;;;;;;;;5096083;28;20097;-63
2022/01/08 02:03:53;;;;;;;13.27;2.35;;;;;;;;;;5094605;28;20050;-62
2022/01/08 02:06:19;;;;;;;6.57;1.92;;;2.80;99.90;;;;;;5093622;28;20059;-62
2022/01/08 02:08:45;;;;;;;10.05;2.25;;;2.70;99.90;;;;;;5094444;28;20040;-62
2022/01/08 02:11:11;;;;;;;6.60;1.67;;;2.70;99.90;;;;;;5094504;28;20044;-62
2022/01/08 02:13:38;;;;;;;6.53;1.63;;;;;;;;;;5094154;28;20036;-62
2022/01/08 02:16:06;;;;;;;6.03;2.05;;;;;;;;;;5092921;28;20483;-61
2022/01/08 02:18:33;;;;;;;8.73;2.00;;;;;;;;;;5092975;28;20414;-61
2022/01/08 02:21:00;;;;;;;6.85;1.70;;;;;;;;;;5093312;28;20411;-62
2022/01/08 02:23:26;;;;;;;6.38;1.85;;;;;;;;;;5093172;28;20482;-62
2022/01/08 02:25:52;;;;;;;6.75;1.88;;;;;;;;;;5092877;28;20448;-62
2022/01/08 02:28:18;;;;;;;8.57;2.67;;;;;;;;;;5092915;28;20044;-61
2022/01/08 02:30:44;;;;;;;5.82;1.80;;;;;;;;;;5093160;28;20040;-61
2022/01/08 02:33:11;;;;;;;5.68;1.90;;;;;;;;;;5093490;28;20197;-62
2022/01/08 02:35:37;;;;;;;10.65;2.90;;;;;;;;;;5092957;28;20115;-62
2022/01/08 02:38:03;;;;;;;5.93;1.30;;;;;;;;;;5089193;28;20163;-62
2022/01/08 02:40:30;;;;;;;6.63;1.40;;;;;;;;;;5081448;28;20147;-62
2022/01/08 02:43:03;;;;;;;7.85;1.80;;;;;;;;;;5093035;28;20436;-62
2022/01/08 02:45:30;;;;;;;5.47;1.52;;;;;;;;;;5092773;28;20087;-62
2022/01/08 02:47:56;;;;;;;7.07;1.70;;;2.60;99.90;;;;;;5092197;28;20040;-62
2022/01/08 02:50:22;;;;;;;8.93;1.75;;;;;;;;;;5092777;28;20048;-62
2022/01/08 02:52:50;;;;;;;6.32;1.45;;;;;;;;;;5092614;28;20072;-61
2022/01/08 02:55:18;;;;;;;6.53;1.63;;;2.30;99.90;;;;;;5092912;28;20044;-62
2022/01/08 02:57:44;;;;;;;7.35;1.50;;;;;;;;;;5093165;28;20149;-62
2022/01/08 03:00:12;;;;;;;6.68;1.65;;;2.80;99.90;;;;;;5093089;28;20043;-62
2022/01/08 03:02:42;;;;;;;8.10;1.73;;;;;;;;;;5092812;28;20085;-62
2022/01/08 03:05:10;;;;;;;7.05;1.90;;;;;;;;;;5092384;28;20127;-61
2022/01/08 03:07:37;;;;;;;4.60;1.25;;;;;;;;;;5074534;28;20541;-62
2022/01/08 03:10:03;;;;;;;7.47;2.38;;;;;;;;;;5092966;28;20101;-61
2022/01/08 03:12:30;;;;;;;12.65;2.15;;;;;;;;;;5092429;28;20436;-62
2022/01/08 03:14:56;;;;;;;6.88;1.40;;;;;;;;;;5092365;28;20044;-62
2022/01/08 03:17:22;;;;;;;11.73;2.13;;;;;;;;;;5074391;28;20067;-62
2022/01/08 03:19:51;;;;;;;7.57;1.70;;;;;;;;;;5092353;28;20075;-62
2022/01/08 03:22:18;;;;;;;8.35;2.13;;;;;;;;;;5092502;28;20044;-63
2022/01/08 03:24:45;;;;;;;6.35;1.95;;;;;;;;;;5092048;28;20036;-61
2022/01/08 03:27:11;;;;;;;7.85;1.85;;;2.70;99.90;;;;;;5074002;28;20346;-62
2022/01/08 03:29:37;;;;;;;9.52;2.45;;;2.40;99.90;;;;;;5091874;28;20040;-62
2022/01/08 03:32:03;;;;;;;6.55;1.77;;;2.60;99.90;;;;;;5092329;28;20119;-62
2022/01/08 03:34:29;;;;;;;8.90;2.10;;;;;;;;;;5073114;28;20135;-62
2022/01/08 03:36:55;;;;;;;6.65;1.77;;;;;;;;;;5092235;28;20553;-62
2022/01/08 03:39:22;;;;;;;6.85;1.90;;;;;;;;;;5092096;28;20040;-62
2022/01/08 03:41:47;;;;;;;7.50;2.00;;;2.20;99.90;;;;;;5074222;28;20044;-62
2022/01/08 03:44:14;;;;;;;7.20;1.90;;;;;;;;;;5091333;28;20036;-62
2022/01/08 03:46:40;;;;;;;7.90;1.90;;;;;;;;;;5091634;28;20043;-62
2022/01/08 03:49:25;;;;;;;7.43;2.58;;;2.50;99.90;;;;;;5091580;28;20080;-62
2022/01/08 03:51:55;;;;;;;7.25;2.35;;;;;;;;;;5073648;28;20032;-62
2022/01/08 03:54:21;;;;;;;6.13;1.50;;;2.20;99.90;;;;;;5091590;28;20040;-62
2022/01/08 03:56:47;;;;;;;7.00;1.70;;;2.40;99.90;;;;;;5091510;28;20036;-63
2022/01/08 03:59:13;;;;;;;7.32;2.10;;;;;;;;;;5091999;28;20044;-62
2022/01/08 04:01:39;;;;;;;10.63;1.40;;;2.50;99.90;;;;;;5091575;28;20501;-61
2022/01/08 04:04:05;;;;;;;7.43;1.58;;;;;;;;;;5092130;28;20059;-62
2022/01/08 04:06:31;;;;;;;6.18;1.65;;;;;;;;;;5091742;28;20422;-61
2022/01/08 04:08:58;;;;;;;8.77;2.50;;;;;;;;;;5092143;28;20423;-61
2022/01/08 04:11:25;;;;;;;12.20;2.17;;;2.60;99.90;;;;;;5074520;28;20037;-62
2022/01/08 04:13:51;;;;;;;11.32;2.47;;;;;;;;;;5091718;28;20032;-62
2022/01/08 04:16:22;;;;;;;9.32;2.45;;;;;;;;;;5091118;28;20117;-62
2022/01/08 04:18:48;;;;;;;9.18;2.00;;;;;;;;;;5091473;28;20039;-62
2022/01/08 04:23:54;;;;;;;6.60;1.98;;;2.90;99.90;;;;;;5091915;28;20048;-62
2022/01/08 04:26:23;;;;;;;10.15;1.95;;;3.00;99.90;;;;;;5092168;28;20089;-63
2022/01/08 04:28:49;;;;;;;11.27;2.00;;;3.50;99.90;;;;;;5091062;28;20040;-62
2022/01/08 04:31:15;;;;;;;6.80;1.30;;;3.00;99.90;;;;;;5091519;28;20036;-62
2022/01/08 04:33:41;;;;;;;5.65;1.27;;;2.90;99.90;;;;;;5091680;28;20035;-62
2022/01/08 04:36:10;;;;;;;9.98;1.38;;;;;;;;;;5091078;28;20115;-62
2022/01/08 04:38:36;;;;;;;6.45;1.25;;;;;;;;;;5091584;28;20050;-62
2022/01/08 04:41:02;;;;;;;7.82;1.35;;;;;;;;;;5091024;28;20119;-62
2022/01/08 04:43:29;;;;;;;5.88;2.03;;;;;;;;;;5073515;28;20406;-62
2022/01/08 04:45:54;;;;;;;8.35;1.55;;;3.20;99.90;;;;;;5090961;28;20047;-62
2022/01/08 04:48:20;;;;;;;7.15;1.38;;;3.20;99.90;;;;;;5075724;28;20046;-62
2022/01/08 04:50:47;;;;;;;8.43;1.50;;;;;;;;;;5093666;28;20048;-62
2022/01/08 04:53:12;;;;;;;8.23;1.58;;;;;;;;;;5094037;28;20040;-63
2022/01/08 04:55:39;;;;;;;8.77;1.98;;;3.20;99.90;;;;;;5093400;28;20065;-62
2022/01/08 04:58:05;;;;;;;5.25;1.33;;;3.00;99.90;;;;;;5093864;28;20079;-62
2022/01/08 05:00:32;;;;;;;6.82;1.73;;;2.80;99.90;;;;;;5093858;28;20526;-62
2022/01/08 05:02:58;;;;;;;6.65;1.67;;;2.70;99.90;;;;;;5093688;28;20123;-62
2022/01/08 05:05:24;;;;;;;9.27;1.70;;;;;;;;;;5097133;28;20397;-62
2022/01/08 05:07:50;;;;;;;14.98;2.22;;;2.60;99.90;;;;;;5097388;28;20107;-62
2022/01/08 05:10:16;;;;;;;6.50;2.13;;;2.50;99.90;;;;;;5062253;28;20098;-62
2022/01/08 05:12:42;;;;;;;6.97;1.70;;;;;;;;;;5097738;28;20036;-62
2022/01/08 05:15:08;;;;;;;5.97;1.50;;;;;;;;;;5097461;28;20040;-62
2022/01/08 05:17:35;;;;;;;9.68;2.67;;;2.40;99.90;;;;;;5095519;28;20632;-62
2022/01/08 05:20:06;;;;;;;14.23;2.35;;;;;;;;;;5095270;28;20058;-61
2022/01/08 05:22:51;;;;;;;9.30;2.20;;;;;;;;;;5094741;28;20040;-62
2022/01/08 05:25:18;;;;;;;7.68;2.40;;;;;;;;;;5094330;28;20510;-62
2022/01/08 05:27:44;;;;;;;7.50;2.25;;;;;;;;;;5094298;28;20040;-62
2022/01/08 05:30:11;;;;;;;8.65;2.00;;;;;;;;;;5094008;28;20032;-61
2022/01/08 05:32:37;;;;;;;7.22;2.90;;;2.40;99.90;;;;;;5094508;28;20329;-62
2022/01/08 05:35:03;;;;;;;8.45;2.70;;;;;;;;;;5094051;28;20505;-62
2022/01/08 05:37:29;;;;;;;7.68;2.13;;;;;;;;;;5094598;28;20366;-62
2022/01/08 05:39:55;;;;;;;8.75;2.30;;;;;;;;;;5094457;28;20040;-62
2022/01/08 05:42:20;;;;;;;6.97;2.20;;;2.30;99.90;;;;;;5094435;28;20063;-62
2022/01/08 05:44:46;;;;;;;10.63;2.80;;;2.10;99.90;;;;;;5094088;28;20040;-62
2022/01/08 05:47:13;;;;;;;8.45;2.45;;;;;;;;;;5058951;28;20044;-62
2022/01/08 05:49:39;;;;;;;10.07;2.45;;;2.00;99.90;;;;;;5094335;28;20118;-62
2022/01/08 05:52:05;;;;;;;10.05;2.58;;;2.00;99.90;;;;;;5093601;28;20359;-63
2022/01/08 05:54:31;;;;;;;8.68;2.83;;;;;;;;;;5094006;28;20043;-62
2022/01/08 05:56:58;;;;;;;9.35;2.45;;;1.90;99.90;;;;;;5093533;28;20032;-62
2022/01/08 05:59:26;;;;;;;8.23;2.50;;;2.00;99.90;;;;;;5094122;28;20055;-62
2022/01/08 06:01:52;;;;;;;12.70;2.58;;;;;;;;;;5094800;28;20047;-62
2022/01/08 06:04:18;;;;;;;10.35;2.65;;;;;;;;;;5093330;28;20414;-61
2022/01/08 06:06:45;;;;;;;8.43;3.13;;;;;;;;;;5093683;28;20050;-62
2022/01/08 06:09:11;;;;;;;9.93;2.60;;;;;;;;;;5093608;28;20052;-62
2022/01/08 06:11:37;;;;;;;9.40;2.75;;;;;;;;;;5093569;28;20044;-62
2022/01/08 06:14:04;;;;;;;8.98;3.25;;;;;;;;;;5093575;28;20525;-63
2022/01/08 06:16:33;;;;;;;11.23;2.72;;;;;;;;;;5092460;28;20085;-62
2022/01/08 06:19:01;;;;;;;11.75;2.90;;;2.20;99.90;;;;;;5093258;28;20498;-63
2022/01/08 06:21:27;;;;;;;10.48;3.78;;;1.70;99.90;;;;;;5059143;28;20055;-62
2022/01/08 06:23:52;;;;;;;8.00;2.47;;;1.70;99.90;;;;;;5094031;28;20417;-62
2022/01/08 06:26:18;;;;;;;11.40;2.60;;;;;;;;;;5094243;28;20104;-62
2022/01/08 06:28:44;;;;;;;7.63;2.50;;;;;;;;;;5093808;28;20043;-63
2022/01/08 06:31:10;;;;;;;7.95;2.47;;;;;;;;;;5093793;28;20092;-63
2022/01/08 06:33:36;;;;;;;8.82;2.25;;;1.60;99.90;;;;;;5093342;28;20114;-62
2022/01/08 06:36:02;;;;;;;11.85;2.55;;;;;;;;;;5093581;28;20035;-63
2022/01/08 06:38:27;;;;;;;10.63;2.47;;;1.80;99.90;;;;;;5093630;28;20043;-63
2022/01/08 06:40:53;;;;;;;9.55;2.25;;;;;;;;;;5093382;28;20036;-62
2022/01/08 06:43:19;;;;;;;7.03;2.42;;;;;;;;;;5093389;28;20040;-62
2022/01/08 06:45:45;;;;;;;10.90;2.40;;;;;;;;;;5074528;28;20139;-63
2022/01/08 06:48:11;;;;;;;8.13;2.40;;;;;;;;;;5092650;28;20517;-63
2022/01/08 06:50:37;;;;;;;9.55;2.38;;;;;;;;;;5093620;28;20040;-63
2022/01/08 06:53:03;;;;;;;8.35;1.98;;;1.70;99.90;;;;;;5092633;28;20565;-63
2022/01/08 06:55:29;;;;;;;8.05;2.10;;;;;;;;;;5093181;28;20032;-63
2022/01/08 06:57:56;;;;;;;7.50;2.17;;;;;;;;;;5093276;28;20073;-63
2022/01/08 07:00:22;;;;;;;8.75;2.58;;;1.80;99.90;;;;;;5092827;28;20063;-62
2022/01/08 07:02:47;;;;;;;6.35;2.30;;;1.80;99.90;;;;;;5092676;28;20431;-63
2022/01/08 07:05:13;;;;;;;9.93;2.58;;;1.80;99.90;;;;;;5075184;28;20130;-62
2022/01/08 07:07:39;;;;;;;11.52;2.55;;;1.70;99.90;;;;;;5093342;28;20036;-63
2022/01/08 07:10:05;;;;;;;6.20;2.30;;;;;;;;;;5093094;28;20517;-63
2022/01/08 07:12:31;;;;;;;6.35;2.53;;;;;;;;;;5092975;28;20438;-63
2022/01/08 07:14:57;;;;;;;10.25;2.30;;;;;;;;;;5092613;28;20466;-63
2022/01/08 07:17:23;;;;;;;9.73;2.30;;;;;;;;;;5092321;28;20115;-63
2022/01/08 07:19:49;;;;;;;10.18;2.92;;;;;;;;;;5093045;28;20040;-62
2022/01/08 07:22:15;;;;;;;7.10;2.40;;;1.90;99.90;;;;;;5092927;28;20044;-63
2022/01/08 07:24:41;;;;;;;8.88;2.78;;;1.80;99.90;;;;;;5092401;28;20044;-62
2022/01/08 07:27:07;;;;;;;9.02;2.47;;;;;;;;;;5092393;28;20065;-63
2022/01/08 07:29:33;;;;;;;7.30;2.60;;;;;;;;;;5092603;28;20115;-62
2022/01/08 07:31:59;;;;;;;9.63;3.20;;;;;;;;;;5092336;28;20098;-62
2022/01/08 07:34:25;;;;;;;9.98;3.03;;;;;;;;;;5073127;28;20050;-62
2022/01/08 07:36:51;;;;;;;9.93;2.50;;;;;;;;;;5091696;28;20559;-62
2022/01/08 07:39:17;;;;;;;6.97;2.70;;;;;;;;;;5091802;28;20115;-63
2022/01/08 07:41:42;;;;;;;9.90;2.80;;;2.00;99.90;;;;;;5092326;28;20562;-62
2022/01/08 07:44:08;;;;;;;7.68;2.60;;;;;;;;;;5091867;28;20066;-61
2022/01/08 07:46:34;;;;;;;7.40;2.90;;;2.00;99.90;;;;;;5091329;28;20108;-62
2022/01/08 07:49:00;;;;;;;9.32;3.35;;;;;;;;;;5091331;28;20044;-63
2022/01/08 07:51:26;;;;;;;10.00;3.38;;;;;;;;;;5092047;28;20565;-61
2022/01/08 07:53:52;;;;;;;8.02;3.13;;;;;;;;;;5091878;28;20036;-61
2022/01/08 07:56:18;;;;;;;10.73;3.50;;;;;;;;;;5091643;28;20517;-62
2022/01/08 07:58:44;;;;;;;12.43;3.50;;;;;;;;;;5091643;28;20040;-61
2022/01/08 08:01:09;;;;;;;10.70;4.05;;;2.20;99.90;;;;;;5091450;28;20406;-61
2022/01/08 08:03:35;;;;;;;9.98;3.63;;;;;;;;;;5091934;28;20081;-61
2022/01/08 08:06:01;;;;;;;11.07;3.67;;;;;;;;;;5091212;28;20039;-60
2022/01/08 08:08:27;;;;;;;9.65;4.50;;;;;;;;;;5090733;28;20527;-61
2022/01/08 08:10:54;;;;;;;11.63;3.65;;;;;;;;;;5091480;28;20067;-61
2022/01/08 08:13:21;;;;;;;9.02;3.60;;;2.00;99.90;;;;;;5091239;28;20506;-60
2022/01/08 08:15:47;;;;;;;8.68;3.58;;;;;;;;;;5091467;28;20032;-61
2022/01/08 08:18:14;;;;;;;14.07;4.10;;;;;;;;;;5091336;28;20123;-61
2022/01/08 08:20:40;;;;;;;9.57;3.85;;;;;;;;;;5091847;28;20044;-62
2022/01/08 08:23:06;;;;;;;8.52;3.40;;;;;;;;;;5092029;28;20047;-62
2022/01/08 08:25:33;;;;;;;11.80;4.00;;;;;;;;;;5091012;28;20040;-60
2022/01/08 08:27:59;;;;;;;7.18;3.22;;;;;;;;;;5094982;28;20051;-61
2022/01/08 08:30:25;;;;;;;9.23;4.18;;;;;;;;;;5091065;28;20040;-61
2022/01/08 08:32:51;;;;;;;9.07;4.45;;;;;;;;;;5089298;28;20040;-61
2022/01/08 08:35:17;;;;;;;11.85;3.83;;;;;;;;;;5072744;28;20036;-62
2022/01/08 08:37:44;;;;;;;10.35;4.03;;;;;;;;;;5071698;28;20092;-61
2022/01/08 08:40:11;;;;;;;9.70;4.13;;;;;;;;;;5089355;28;20043;-61
2022/01/08 08:42:37;;;;;;;11.35;3.85;;;;;;;;;;5095313;28;20489;-62
2022/01/08 08:45:04;;;;;;;9.07;3.95;;;;;;;;;;5094886;28;20063;-61
2022/01/08 08:47:31;;;;;;;12.13;4.50;;;;;;;;;;5095032;28;20399;-61
2022/01/08 08:49:57;;;;;;;8.07;3.20;;;;;;;;;;5094483;28;20405;-61
2022/01/08 08:52:23;;;;;;;10.50;3.28;;;;;;;;;;5093439;28;20514;-61
2022/01/08 08:54:49;;;;;;;9.63;3.40;;;2.60;99.90;;;;;;5093923;28;20032;-61
2022/01/08 08:57:15;;;;;;;11.80;3.47;;;;;;;;;;5093284;28;20028;-61
2022/01/08 08:59:41;;;;;;;10.55;3.30;;;2.70;99.90;;;;;;5094059;28;20040;-61
2022/01/08 09:02:07;;;;;;;9.43;3.60;;;;;;;;;;5094565;28;20110;-61
2022/01/08 09:04:33;;;;;;;8.13;3.15;;;;;;;;;;5093966;28;20081;-61
2022/01/08 09:06:59;;;;;;;10.32;3.05;;;2.70;99.90;;;;;;5094064;28;20089;-61
2022/01/08 09:09:25;;;;;;;9.02;2.95;;;2.30;99.90;;;;;;5041803;28;20131;-61
2022/01/08 09:11:51;;;;;;;7.30;3.20;;;;;;;;;;5093865;28;20039;-61
2022/01/08 09:14:17;;;;;;;7.32;3.60;;;;;;;;;;5093849;28;20111;-61
2022/01/08 09:16:46;;;;;;;10.23;3.35;;;;;;;;;;5086978;28;20028;-61
2022/01/08 09:19:12;;;;;;;8.60;2.92;;;;;;;;;;5074077;28;20033;-61
2022/01/08 09:21:38;;;;;;;10.27;3.30;;;;;;;;;;5075671;28;20505;-61
2022/01/08 09:24:04;;;;;;;11.43;3.67;;;;;;;;;;5088587;28;20032;-61
2022/01/08 09:26:30;;;;;;;8.48;3.25;;;;;;;;;;5094025;28;20593;-61
2022/01/08 09:28:56;;;;;;;8.80;3.72;;;2.90;99.90;;;;;;5093689;28;20135;-62
2022/01/08 09:31:22;;;;;;;11.57;3.55;;;3.10;99.90;;;;;;5094494;28;20414;-62
2022/01/08 09:33:48;;;;;;;11.10;3.75;;;;;;;;;;5095922;28;20036;-61
2022/01/08 09:36:14;;;;;;;8.50;3.78;;;3.10;99.90;;;;;;5093844;28;20036;-61
2022/01/08 09:38:40;;;;;;;8.05;3.20;;;;;;;;;;5094137;28;20118;-62
2022/01/08 09:41:06;;;;;;;11.77;3.67;;;;;;;;;;5094201;28;20413;-62
2022/01/08 09:43:32;;;;;;;10.20;3.08;;;;;;;;;;5085933;28;20036;-62
2022/01/08 09:45:58;;;;;;;14.98;3.33;;;;;;;;;;5093965;28;20054;-60
2022/01/08 09:48:24;;;;;;;8.85;2.97;;;;;;;;;;5093833;28;20036;-61
2022/01/08 09:50:50;;;;;;;12.27;3.03;;;;;;;;;;5092363;28;20040;-61
2022/01/08 09:53:16;;;;;;;15.25;3.35;;;3.50;99.90;;;;;;5093792;28;20036;-61
2022/01/08 09:55:42;;;;;;;9.20;3.40;;;;;;;;;;5093552;28;20035;-61
2022/01/08 09:58:08;;;;;;;10.25;3.33;;;3.50;99.90;;;;;;5093868;28;20046;-61
2022/01/08 10:00:35;;;;;;;10.77;3.25;;;;;;;;;;5094076;28;20549;-61
2022/01/08 10:03:26;;;;;;;7.68;3.67;;;4.10;99.90;;;;;;5093963;28;20047;-61
2022/01/08 10:05:58;;;;;;;9.73;3.35;;;;;;;;;;5093515;28;20032;-61
2022/01/08 10:08:26;;;;;;;15.07;4.32;;;3.20;99.90;;;;;;5076002;28;20048;-61
2022/01/08 10:10:59;;;;;;;10.07;4.00;;;;;;;;;;5093540;28;20063;-62
2022/01/08 10:13:29;;;;;;;13.00;3.92;;;4.10;99.90;;;;;;5093746;28;20048;-61
2022/01/08 10:18:42;;;;;;;9.13;3.80;;;4.00;99.90;;;;;;5093342;28;20093;-61
2022/01/08 10:21:28;;;;;;;10.55;3.50;;;4.30;99.90;;;;;;5093599;28;20387;-63
2022/01/08 10:23:58;;;;;;;13.13;4.72;;;3.20;99.90;;;;;;5094138;28;20047;-61
2022/01/08 10:26:30;;;;;;;10.80;3.72;;;;;;;;;;5058342;28;20500;-61
2022/01/08 10:28:57;;;;;;;8.20;3.88;;;;;;;;;;5093872;28;20556;-61
2022/01/08 10:31:30;;;;;;;14.40;4.55;;;3.30;99.90;;;;;;5092987;28;20044;-62
2022/01/08 10:34:02;;;;;;;13.25;3.92;;;;;;;;;;5091784;28;20047;-61
2022/01/08 10:36:40;;;;;;;8.93;3.58;;;;;;;;;;5076443;28;20124;-60
2022/01/08 10:39:09;;;;;;;11.02;3.75;;;;;;;;;;5088907;28;20036;-61
2022/01/08 10:41:44;;;;;;;11.75;3.50;;;4.10;99.90;;;;;;5091780;28;20110;-62
2022/01/08 10:44:16;;;;;;;10.65;4.15;;;3.20;99.90;;;;;;5092221;28;20093;-61
2022/01/08 10:46:46;;;;;;;12.10;4.60;;;;;;;;;;5092305;28;20036;-61
2022/01/08 10:49:15;;;;;;;7.57;4.13;;;;;;;;;;5092366;28;20051;-61
2022/01/08 10:51:41;;;;;;;13.10;5.13;;;;;;;;;;5091370;28;20395;-62
2022/01/08 10:54:08;;;;;;;14.35;4.03;;;;;;;;;;5077016;28;20062;-61
2022/01/08 10:56:37;;;;;;;11.43;4.63;;;;;;;;;;5080183;28;20447;-61
2022/01/08 10:59:07;;;;;;;11.00;3.92;;;4.10;99.90;;;;;;5081282;28;20094;-62
2022/01/08 11:01:39;;;;;;;8.90;3.97;;;3.50;99.90;;;;;;5090575;28;20044;-61
2022/01/08 11:04:06;;;;;;;11.23;4.57;;;;;;;;;;5092495;28;20047;-61
2022/01/08 11:06:32;;;;;;;13.18;4.22;;;;;;;;;;5092191;28;20036;-60
2022/01/08 11:09:01;;;;;;;10.88;4.07;;;;;;;;;;5092694;28;20555;-62
2022/01/08 11:11:31;;;;;;;9.15;5.00;;;;;;;;;;5092714;28;20097;-61
2022/01/08 11:14:06;;;;;;;10.52;4.80;;;4.00;99.90;;;;;;5092697;28;20135;-61
2022/01/08 11:16:33;;;;;;;10.95;4.82;;;;;;;;;;5092175;28;20089;-61
2022/01/08 11:18:59;;;;;;;9.18;4.93;;;;;;;;;;5092245;28;20044;-60
2022/01/08 11:21:30;;;;;;;11.95;4.45;;;3.90;99.90;;;;;;5074279;28;20048;-61
2022/01/08 11:24:00;;;;;;;11.38;5.30;;;;;;;;;;5092543;28;20168;-60
2022/01/08 11:26:27;;;;;;;13.23;4.88;;;;;;;;;;5092057;28;20047;-61
2022/01/08 11:28:58;;;;;;;12.32;6.20;;;4.30;99.90;;;;;;5092324;28;20372;-61
2022/01/08 11:31:27;;;;;;;14.50;4.93;;;;;;;;;;5092234;28;20104;-62
2022/01/08 11:33:56;;;;;;;10.45;5.15;;;4.00;99.90;;;;;;5092444;28;20039;-62
2022/01/08 11:36:23;;;;;;;17.00;5.85;;;4.10;99.90;;;;;;5092210;28;20042;-62
2022/01/08 11:38:49;;;;;;;17.92;5.80;;;;;;;;;;5092554;28;20429;-61
2022/01/08 11:41:16;;;;;;;10.10;5.25;;;4.10;99.90;;;;;;5092320;28;20123;-62
2022/01/08 11:43:42;;;;;;;11.82;6.25;;;;;;;;;;5092209;28;20036;-62
2022/01/08 11:46:09;;;;;;;13.45;5.10;;;;;;;;;;5091779;28;20047;-62
2022/01/08 11:48:36;;;;;;;11.35;5.50;;;4.30;99.90;;;;;;5092585;28;20328;-61
2022/01/08 11:51:04;;;;;;;12.35;4.90;;;4.50;99.90;;;;;;5092230;28;20071;-62
2022/01/08 11:53:44;;;;;;;12.30;5.00;;;4.40;99.90;;;;;;5073995;28;20036;-62
2022/01/08 11:56:20;;;;;;;10.60;5.07;;;;;;;;;;5086319;28;20128;-61
2022/01/08 11:59:05;;;;;;;13.13;6.03;;;4.70;99.90;;;;;;5077589;28;20829;-62
2022/01/08 12:01:31;;;;;;;11.70;5.00;;;;;;;;;;5080897;28;20036;-62
2022/01/08 12:03:57;;;;;;;12.30;5.63;;;;;;;;;;5080840;28;20074;-62
2022/01/08 12:06:28;;;;;;;15.10;6.55;;;4.40;99.90;;;;;;5084435;28;20115;-61
2022/01/08 12:09:43;;;;;;;14.90;6.22;;;;;;;;;;5074330;28;20067;-61
2022/01/08 12:11:47;;;;;;;11.23;5.97;;;;;;;;;;5094813;22;20052;-61
2022/01/08 12:14:18;;;;;;;15.65;6.93;;;4.70;99.90;;;;;;5091004;28;20051;-61
2022/01/08 12:16:45;;;;;;;12.35;6.22;;;;;;;;;;5091624;28;20630;-61
2022/01/08 12:19:37;;;;;;;11.95;7.45;;;4.60;99.90;;;;;;5091902;28;20078;-61
2022/01/08 12:22:15;;;;;;;14.38;7.22;;;4.60;98.40;;;;;;5091939;28;20085;-61
2022/01/08 12:24:42;;;;;;;15.82;7.72;;;;;;;;;;5086163;28;20044;-61
2022/01/08 12:27:32;;;;;;;12.70;7.85;;;4.80;97.30;;;;;;5064645;28;20032;-61
2022/01/08 12:29:59;;;;;;;11.73;6.68;;;4.40;97.40;;;;;;5050867;28;20040;-61
2022/01/08 12:32:36;;;;;;;13.35;8.07;;;;;;;;;;5071416;28;20043;-64
2022/01/08 12:35:19;;;;;;;11.50;7.47;;;;;;;;;;5053590;28;20048;-62
2022/01/08 12:37:56;;;;;;;14.50;8.73;;;4.10;97.60;;;;;;5071370;28;20055;-62
2022/01/08 12:40:45;;;;;;;13.18;7.88;;;4.40;98.00;;;;;;5071440;28;20041;-62
2022/01/08 12:43:25;;;;;;;16.70;8.73;;;3.80;97.90;;;;;;5071447;28;20036;-61
2022/01/08 12:45:52;;;;;;;18.05;10.00;;;4.10;99.00;;;;;;5070796;28;20044;-60
2022/01/08 12:48:19;;;;;;;15.73;9.85;;;4.30;99.10;;;;;;5071493;28;20037;-61
2022/01/08 12:50:45;;;;;;;15.48;10.10;;;;;;;;;;5071271;28;20089;-61
2022/01/08 12:53:22;;;;;;;13.68;9.38;;;;;;;;;;5071108;28;20390;-61
2022/01/08 12:55:54;;;;;;;14.70;9.43;;;4.10;99.90;;;;;;5070806;28;20055;-61
2022/01/08 12:58:23;;;;;;;12.70;8.63;;;;;;;;;;5070764;28;20037;-61
2022/01/08 13:01:01;;;;;;;13.52;8.90;;;4.40;99.90;;;;;;5071101;28;20055;-61
2022/01/08 13:03:29;;;;;;;14.45;7.15;;;;;;;;;;5067118;28;20073;-61
2022/01/08 13:05:55;;;;;;;10.82;5.13;;;;;;;;;;5069545;28;20047;-62
2022/01/08 13:08:22;;;;;;;7.18;3.20;;;;;;;;;;5069959;28;20075;-61
2022/01/08 13:10:48;;;;;;;7.50;3.20;;;;;;;;;;5070620;28;20044;-62
2022/01/08 13:13:14;;;;;;;5.93;2.50;;;3.90;99.20;;;;;;5066525;28;20040;-62
2022/01/08 13:15:39;;;;;;;6.60;2.22;;;4.00;98.70;;;;;;5067613;28;20491;-62
2022/01/08 13:18:25;;;;;;;6.80;2.05;;;;;;;;;;5061644;28;20024;-61
2022/01/08 13:21:04;;;;;;;7.68;2.10;;;;;;;;;;5052259;28;20056;-61
2022/01/08 13:23:30;;;;;;;6.15;2.65;;;;;;;;;;5052276;28;20040;-62
2022/01/08 13:25:57;;;;;;;5.20;2.33;;;;;;;;;;5073170;28;20114;-61
2022/01/08 13:28:24;;;;;;;6.05;2.30;;;;;;;;;;5069944;28;20441;-62
2022/01/08 13:30:50;;;;;;;6.95;3.00;;;;;;;;;;5070438;28;20035;-61
2022/01/08 13:33:26;;;;;;;6.10;2.58;;;;;;;;;;5071427;28;20504;-62
2022/01/08 13:36:04;;;;;;;6.68;2.53;;;3.90;95.20;;;;;;5072441;28;20570;-62
2022/01/08 13:38:35;;;;;;;6.57;2.58;;;4.30;95.40;;;;;;5073897;28;20060;-62
2022/01/08 13:41:07;;;;;;;7.22;2.80;;;;;;;;;;5060681;28;20431;-61
2022/01/08 13:43:33;;;;;;;8.98;3.78;;;;;;;;;;5071581;28;20045;-62
2022/01/08 13:46:00;;;;;;;8.23;3.58;;;;;;;;;;5068861;28;20041;-62
2022/01/08 13:48:25;;;;;;;7.50;3.63;;;3.90;96.20;;;;;;5071246;28;20045;-62
2022/01/08 13:50:57;;;;;;;17.15;12.18;;;;;;;;;;5068613;28;20055;-62
2022/01/08 13:53:24;;;;;;;10.10;3.72;;;;;;;;;;5073882;28;20037;-62
2022/01/08 13:55:50;;;;;;;8.63;4.47;;;3.80;97.40;;;;;;5073464;28;20048;-61
2022/01/08 13:58:19;;;;;;;10.93;6.45;;;3.50;97.00;;;;;;5055887;28;20051;-62
2022/01/08 14:00:46;;;;;;;24.13;14.43;;;;;;;;;;5073589;28;20482;-62
2022/01/08 14:03:22;;;;;;;13.05;5.78;;;;;;;;;;5073817;28;20041;-62
2022/01/08 14:05:48;;;;;;;11.27;7.20;;;;;;;;;;5073032;28;20040;-62
2022/01/08 14:08:14;;;;;;;11.38;6.65;;;;;;;;;;5072857;28;20411;-62
2022/01/08 14:10:45;;;;;;;14.20;6.57;;;3.90;99.70;;;;;;5072387;28;21340;-62
2022/01/08 14:13:13;;;;;;;15.77;8.48;;;;;;;;;;5067482;28;20112;-61
2022/01/08 14:15:41;;;;;;;12.50;7.97;;;3.70;99.90;;;;;;5069215;28;20041;-62
2022/01/08 14:18:12;;;;;;;15.65;9.35;;;4.00;99.90;;;;;;5072484;28;20032;-62
2022/01/08 14:20:39;;;;;;;13.15;7.28;;;;;;;;;;5071003;28;20028;-62
2022/01/08 14:23:16;;;;;;;14.10;8.23;;;3.90;99.90;;;;;;5069185;28;20047;-62
2022/01/08 14:25:43;;;;;;;13.70;7.15;;;;;;;;;;5070775;28;20078;-61